Summary for KCOGRAND2

Redlands, Southcamp Road & Dakota Circle, Grand Junction, CO 81507
Join the PWSweather.com Network
View data in metric units
Latest Conditions
Updated 1:20:30 PM MDT Thursday, Jul 24, 2014
Data Currently Today's Max Today's Min Today's Average
Temperature 88.7°F31.5°C 89.2°F31.8°C 76.8°F24.9°C 84.0°F28.9°C
Dew Point -5537.2°C 37.2°F2.9°C 22.5°F-5.3°C 28.4°F-2.0°C
Winds 8.0 mph SW12.9 kmh SW 14.0 mph ENE22.5 kmh ENE CalmCalm 5.5 mph8.9 kmh
Wind Gusts 12.1 mph19.5 kmh 24.4 mph39.3 kmh 2.7 mph4.3 kmh 9.8 mph15.8 kmh
Humidity - 22% 11% 14%
Pressure 25.16 in852.0 mb 25.19 in853.0 mb 25.10 in850.0 mb 25.16 in852.0 mb
Precipitation 0.00 in0.0 mm - - 0.00 in0.0 mm
Trends
 
Station Profile
Redlands, Southcamp Road & Dakota CircleGrand Junction, CO 81507

Lat: 39.055, Lon: -108.637
Elevation: 4870
Station Type: RadioShack WX200

Detailed Summary for Thu, Jul 24, 2014
Hour (MDT) Temperature Dew Point Humidity Winds Wind Gusts Pressure Precip Precip Rate Daily Precip Total
01:20 PM 88.7°F31.5°C -5537.2°C - 8.0 mph SW12.9 kmh SW 12.1 mph19.5 kmh 25.16 in852.0 mb 0.00 in0.0 mm 0.00 in/hr0.0 mm/hr 0.00 in0.0 mm
01:15 PM 88.2°F31.2°C -5537.2°C - 8.0 mph SW12.9 kmh SW 11.2 mph18.0 kmh 25.16 in852.0 mb 0.00 in0.0 mm 0.00 in/hr0.0 mm/hr 0.00 in0.0 mm
01:10 PM 88.0°F31.1°C -5537.2°C - 8.0 mph WSW12.9 kmh WSW 13.0 mph20.9 kmh 25.16 in852.0 mb 0.00 in0.0 mm 0.00 in/hr0.0 mm/hr 0.00 in0.0 mm
01:05 PM 88.5°F31.4°C -5537.2°C - 7.0 mph W11.3 kmh W 12.5 mph20.1 kmh 25.16 in852.0 mb 0.00 in0.0 mm 0.00 in/hr0.0 mm/hr 0.00 in0.0 mm
01:00 PM 87.8°F31.0°C -5537.2°C - 6.0 mph WNW9.7 kmh WNW 13.0 mph20.9 kmh 25.16 in852.0 mb 0.00 in0.0 mm 0.00 in/hr0.0 mm/hr 0.00 in0.0 mm
12:55 PM 88.5°F31.4°C -5537.2°C - 6.0 mph NW9.7 kmh NW 9.6 mph15.4 kmh 25.16 in852.0 mb 0.00 in0.0 mm 0.00 in/hr0.0 mm/hr 0.00 in0.0 mm
12:50 PM 89.2°F31.8°C -5537.2°C - 6.0 mph NW9.7 kmh NW 10.1 mph16.3 kmh 25.16 in852.0 mb 0.00 in0.0 mm 0.00 in/hr0.0 mm/hr 0.00 in0.0 mm
12:45 PM 88.5°F31.4°C -5537.2°C - 6.0 mph NW9.7 kmh NW 11.0 mph17.7 kmh 25.16 in852.0 mb 0.00 in0.0 mm 0.00 in/hr0.0 mm/hr 0.00 in0.0 mm
12:40 PM 88.3°F31.3°C -5537.2°C - 5.0 mph NW8.0 kmh NW 9.6 mph15.4 kmh 25.16 in852.0 mb 0.00 in0.0 mm 0.00 in/hr0.0 mm/hr 0.00 in0.0 mm
12:35 PM 87.4°F30.8°C -5537.2°C - 6.0 mph NW9.7 kmh NW 11.6 mph18.7 kmh 25.16 in852.0 mb 0.00 in0.0 mm 0.00 in/hr0.0 mm/hr 0.00 in0.0 mm
12:30 PM 87.3°F30.7°C -5537.2°C - 6.0 mph NW9.7 kmh NW 11.6 mph18.7 kmh 25.16 in852.0 mb 0.00 in0.0 mm 0.00 in/hr0.0 mm/hr 0.00 in0.0 mm
12:25 PM 88.2°F31.2°C -5537.2°C - 6.0 mph NW9.7 kmh NW 11.0 mph17.7 kmh 25.16 in852.0 mb 0.00 in0.0 mm 0.00 in/hr0.0 mm/hr 0.00 in0.0 mm
12:20 PM 88.9°F31.6°C -5537.2°C - 6.0 mph NW9.7 kmh NW 11.2 mph18.0 kmh 25.16 in852.0 mb 0.00 in0.0 mm 0.00 in/hr0.0 mm/hr 0.00 in0.0 mm
12:15 PM 88.3°F31.3°C -5537.2°C - 7.0 mph NNW11.3 kmh NNW 9.2 mph14.8 kmh 25.16 in852.0 mb 0.00 in0.0 mm 0.00 in/hr0.0 mm/hr 0.00 in0.0 mm
12:10 PM 87.1°F30.6°C -5537.2°C - 8.0 mph 12.9 kmh 13.4 mph21.6 kmh 25.16 in852.0 mb 0.00 in0.0 mm 0.00 in/hr0.0 mm/hr 0.00 in0.0 mm
12:05 PM 86.7°F30.4°C 25.9°F-3.4°C 11% 9.0 mph N14.5 kmh N 12.5 mph20.1 kmh 25.16 in852.0 mb 0.00 in0.0 mm 0.00 in/hr0.0 mm/hr 0.00 in0.0 mm
12:00 PM 86.0°F30.0°C 25.3°F-3.7°C 11% 9.0 mph N14.5 kmh N 13.0 mph20.9 kmh 25.16 in852.0 mb 0.00 in0.0 mm 0.00 in/hr0.0 mm/hr 0.00 in0.0 mm
11:55 AM 86.0°F30.0°C 25.3°F-3.7°C 11% 9.0 mph NNW14.5 kmh NNW 12.5 mph20.1 kmh 25.16 in852.0 mb 0.00 in0.0 mm 0.00 in/hr0.0 mm/hr 0.00 in0.0 mm
11:50 AM 85.6°F29.8°C 25.2°F-3.8°C 11% 9.0 mph NNW14.5 kmh NNW 15.2 mph24.5 kmh 25.16 in852.0 mb 0.00 in0.0 mm 0.00 in/hr0.0 mm/hr 0.00 in0.0 mm
11:45 AM 85.8°F29.9°C 25.2°F-3.8°C 11% 9.0 mph N14.5 kmh N 12.1 mph19.5 kmh 25.16 in852.0 mb 0.00 in0.0 mm 0.00 in/hr0.0 mm/hr 0.00 in0.0 mm
11:40 AM 85.8°F29.9°C 25.2°F-3.8°C 11% 9.0 mph N14.5 kmh N 13.4 mph21.6 kmh 25.19 in853.0 mb 0.00 in0.0 mm 0.00 in/hr0.0 mm/hr 0.00 in0.0 mm
11:35 AM 85.5°F29.7°C 25.0°F-3.9°C 11% 8.0 mph NNW12.9 kmh NNW 13.0 mph20.9 kmh 25.19 in853.0 mb 0.00 in0.0 mm 0.00 in/hr0.0 mm/hr 0.00 in0.0 mm
11:30 AM 86.4°F30.2°C -5537.2°C - 6.0 mph NNW9.7 kmh NNW 10.1 mph16.3 kmh 25.19 in853.0 mb 0.00 in0.0 mm 0.00 in/hr0.0 mm/hr 0.00 in0.0 mm
11:25 AM 88.0°F31.1°C -5537.2°C - 6.0 mph NNW9.7 kmh NNW 9.2 mph14.8 kmh 25.19 in853.0 mb 0.00 in0.0 mm 0.00 in/hr0.0 mm/hr 0.00 in0.0 mm
11:20 AM 86.0°F30.0°C -5537.2°C - 6.0 mph N9.7 kmh N 7.4 mph11.9 kmh 25.19 in853.0 mb 0.00 in0.0 mm 0.00 in/hr0.0 mm/hr 0.00 in0.0 mm
11:15 AM 86.4°F30.2°C -5537.2°C - 7.0 mph N11.3 kmh N 10.1 mph16.3 kmh 25.19 in853.0 mb 0.00 in0.0 mm 0.00 in/hr0.0 mm/hr 0.00 in0.0 mm
11:10 AM 85.6°F29.8°C 25.2°F-3.8°C 11% 7.0 mph N11.3 kmh N 12.5 mph20.1 kmh 25.19 in853.0 mb 0.00 in0.0 mm 0.00 in/hr0.0 mm/hr 0.00 in0.0 mm
11:05 AM 86.2°F30.1°C 25.5°F-3.6°C 11% 7.0 mph N11.3 kmh N 13.0 mph20.9 kmh 25.19 in853.0 mb 0.00 in0.0 mm 0.00 in/hr0.0 mm/hr 0.00 in0.0 mm
11:00 AM 85.6°F29.8°C 25.2°F-3.8°C 11% 6.0 mph N9.7 kmh N 14.3 mph23.0 kmh 25.19 in853.0 mb 0.00 in0.0 mm 0.00 in/hr0.0 mm/hr 0.00 in0.0 mm
10:55 AM 85.1°F29.5°C 24.6°F-4.1°C 11% 6.0 mph NNW9.7 kmh NNW 10.1 mph16.3 kmh 25.19 in853.0 mb 0.00 in0.0 mm 0.00 in/hr0.0 mm/hr 0.00 in0.0 mm
10:50 AM 85.1°F29.5°C 24.6°F-4.1°C 11% 5.0 mph NW8.0 kmh NW 11.6 mph18.7 kmh 25.19 in853.0 mb 0.00 in0.0 mm 0.00 in/hr0.0 mm/hr 0.00 in0.0 mm
10:45 AM 85.5°F29.7°C 25.0°F-3.9°C 11% 4.0 mph NW6.4 kmh NW 6.7 mph10.8 kmh 25.19 in853.0 mb 0.00 in0.0 mm 0.00 in/hr0.0 mm/hr 0.00 in0.0 mm
10:40 AM 85.5°F29.7°C 25.0°F-3.9°C 11% 4.0 mph NNW6.4 kmh NNW 9.2 mph14.8 kmh 25.19 in853.0 mb 0.00 in0.0 mm 0.00 in/hr0.0 mm/hr 0.00 in0.0 mm
10:35 AM 85.5°F29.7°C 25.0°F-3.9°C 11% 5.0 mph N8.0 kmh N 7.8 mph12.6 kmh 25.19 in853.0 mb 0.00 in0.0 mm 0.00 in/hr0.0 mm/hr 0.00 in0.0 mm
10:30 AM 84.9°F29.4°C 24.6°F-4.1°C 11% 6.0 mph NNW9.7 kmh NNW 12.1 mph19.5 kmh 25.19 in853.0 mb 0.00 in0.0 mm 0.00 in/hr0.0 mm/hr 0.00 in0.0 mm
10:25 AM 84.6°F29.2°C 24.3°F-4.3°C 11% 8.0 mph N12.9 kmh N 13.0 mph20.9 kmh 25.19 in853.0 mb 0.00 in0.0 mm 0.00 in/hr0.0 mm/hr 0.00 in0.0 mm
10:20 AM 84.2°F29.0°C 24.1°F-4.4°C 11% 10.0 mph N16.1 kmh N 12.5 mph20.1 kmh 25.19 in853.0 mb 0.00 in0.0 mm 0.00 in/hr0.0 mm/hr 0.00 in0.0 mm
10:15 AM 84.0°F28.9°C 23.9°F-4.5°C 11% 9.0 mph N14.5 kmh N 15.4 mph24.8 kmh 25.19 in853.0 mb 0.00 in0.0 mm 0.00 in/hr0.0 mm/hr 0.00 in0.0 mm
10:10 AM 85.1°F29.5°C 24.6°F-4.1°C 11% 9.0 mph N14.5 kmh N 12.5 mph20.1 kmh 25.19 in853.0 mb 0.00 in0.0 mm 0.00 in/hr0.0 mm/hr 0.00 in0.0 mm
10:05 AM 84.9°F29.4°C 24.6°F-4.1°C 11% 8.0 mph N12.9 kmh N 13.4 mph21.6 kmh 25.19 in853.0 mb 0.00 in0.0 mm 0.00 in/hr0.0 mm/hr 0.00 in0.0 mm
10:00 AM 84.0°F28.9°C 23.9°F-4.5°C 11% 8.0 mph N12.9 kmh N 13.9 mph22.4 kmh 25.19 in853.0 mb 0.00 in0.0 mm 0.00 in/hr0.0 mm/hr 0.00 in0.0 mm
09:55 AM 83.8°F28.8°C 27.7°F-2.4°C 13% 7.0 mph NNW11.3 kmh NNW 11.6 mph18.7 kmh 25.19 in853.0 mb 0.00 in0.0 mm 0.00 in/hr0.0 mm/hr 0.00 in0.0 mm
09:50 AM 83.8°F28.8°C 27.7°F-2.4°C 13% 8.0 mph N12.9 kmh N 10.1 mph16.3 kmh 25.19 in853.0 mb 0.00 in0.0 mm 0.00 in/hr0.0 mm/hr 0.00 in0.0 mm
09:45 AM 83.3°F28.5°C 27.3°F-2.6°C 13% 8.0 mph N12.9 kmh N 13.0 mph20.9 kmh 25.19 in853.0 mb 0.00 in0.0 mm 0.00 in/hr0.0 mm/hr 0.00 in0.0 mm
09:40 AM 83.1°F28.4°C 28.9°F-1.7°C 14% 8.0 mph N12.9 kmh N 11.6 mph18.7 kmh 25.19 in853.0 mb 0.00 in0.0 mm 0.00 in/hr0.0 mm/hr 0.00 in0.0 mm
09:35 AM 82.8°F28.2°C 32.0°F0.0°C 16% 8.0 mph N12.9 kmh N 13.0 mph20.9 kmh 25.19 in853.0 mb 0.00 in0.0 mm 0.00 in/hr0.0 mm/hr 0.00 in0.0 mm
09:30 AM 82.6°F28.1°C 31.8°F-0.1°C 16% 8.0 mph N12.9 kmh N 12.1 mph19.5 kmh 25.19 in853.0 mb 0.00 in0.0 mm 0.00 in/hr0.0 mm/hr 0.00 in0.0 mm
09:25 AM 82.8°F28.2°C 32.0°F0.0°C 16% 8.0 mph N12.9 kmh N 11.6 mph18.7 kmh 25.19 in853.0 mb 0.00 in0.0 mm 0.00 in/hr0.0 mm/hr 0.00 in0.0 mm
09:20 AM 82.8°F28.2°C 32.0°F0.0°C 16% 7.0 mph N11.3 kmh N 10.1 mph16.3 kmh 25.19 in853.0 mb 0.00 in0.0 mm 0.00 in/hr0.0 mm/hr 0.00 in0.0 mm
09:15 AM 82.8°F28.2°C 36.3°F2.4°C 19% 6.0 mph N9.7 kmh N 10.1 mph16.3 kmh 25.19 in853.0 mb 0.00 in0.0 mm 0.00 in/hr0.0 mm/hr 0.00 in0.0 mm
09:10 AM 82.0°F27.8°C 35.6°F2.0°C 19% 7.0 mph N11.3 kmh N 8.7 mph14.0 kmh 25.19 in853.0 mb 0.00 in0.0 mm 0.00 in/hr0.0 mm/hr 0.00 in0.0 mm
09:05 AM 81.5°F27.5°C 35.2°F1.8°C 19% 8.0 mph N12.9 kmh N 11.6 mph18.7 kmh 25.19 in853.0 mb 0.00 in0.0 mm 0.00 in/hr0.0 mm/hr 0.00 in0.0 mm
09:00 AM 81.3°F27.4°C 36.3°F2.4°C 20% 9.0 mph N14.5 kmh N 13.4 mph21.6 kmh 25.19 in853.0 mb 0.00 in0.0 mm 0.00 in/hr0.0 mm/hr 0.00 in0.0 mm
08:55 AM 81.0°F27.2°C 36.1°F2.3°C 20% 8.0 mph N12.9 kmh N 13.4 mph21.6 kmh 25.19 in853.0 mb 0.00 in0.0 mm 0.00 in/hr0.0 mm/hr 0.00 in0.0 mm
08:50 AM 80.8°F27.1°C 36.0°F2.2°C 20% 7.0 mph NNW11.3 kmh NNW 13.0 mph20.9 kmh 25.19 in853.0 mb 0.00 in0.0 mm 0.00 in/hr0.0 mm/hr 0.00 in0.0 mm
08:45 AM 80.8°F27.1°C 36.0°F2.2°C 20% 6.0 mph NNW9.7 kmh NNW 11.6 mph18.7 kmh 25.19 in853.0 mb 0.00 in0.0 mm 0.00 in/hr0.0 mm/hr 0.00 in0.0 mm
08:40 AM 80.6°F27.0°C 35.8°F2.1°C 20% 6.0 mph NW9.7 kmh NW 8.3 mph13.4 kmh 25.19 in853.0 mb 0.00 in0.0 mm 0.00 in/hr0.0 mm/hr 0.00 in0.0 mm
08:35 AM 80.6°F27.0°C 35.8°F2.1°C 20% 6.0 mph NNW9.7 kmh NNW 8.7 mph14.0 kmh 25.19 in853.0 mb 0.00 in0.0 mm 0.00 in/hr0.0 mm/hr 0.00 in0.0 mm
08:30 AM 79.3°F26.3°C 37.2°F2.9°C 22% 6.0 mph N9.7 kmh N 9.2 mph14.8 kmh 25.19 in853.0 mb 0.00 in0.0 mm 0.00 in/hr0.0 mm/hr 0.00 in0.0 mm
08:25 AM 80.4°F26.9°C 35.6°F2.0°C 20% 7.0 mph N11.3 kmh N 10.1 mph16.3 kmh 25.19 in853.0 mb 0.00 in0.0 mm 0.00 in/hr0.0 mm/hr 0.00 in0.0 mm
08:20 AM 81.0°F27.2°C 32.0°F0.0°C 17% 7.0 mph NNW11.3 kmh NNW 11.2 mph18.0 kmh 25.19 in853.0 mb 0.00 in0.0 mm 0.00 in/hr0.0 mm/hr 0.00 in0.0 mm
08:15 AM 81.5°F27.5°C 27.7°F-2.4°C 14% 6.0 mph NNW9.7 kmh NNW 11.0 mph17.7 kmh 25.19 in853.0 mb 0.00 in0.0 mm 0.00 in/hr0.0 mm/hr 0.00 in0.0 mm
08:10 AM 81.9°F27.7°C 28.0°F-2.2°C 14% 5.0 mph N8.0 kmh N 10.5 mph16.9 kmh 25.19 in853.0 mb 0.00 in0.0 mm 0.00 in/hr0.0 mm/hr 0.00 in0.0 mm
08:05 AM 82.2°F27.9°C 28.2°F-2.1°C 14% 5.0 mph NE8.0 kmh NE 7.4 mph11.9 kmh 25.19 in853.0 mb 0.00 in0.0 mm 0.00 in/hr0.0 mm/hr 0.00 in0.0 mm
07:59 AM 82.2°F27.9°C 28.2°F-2.1°C 14% 6.0 mph NNE9.7 kmh NNE 10.5 mph16.9 kmh 25.19 in853.0 mb 0.00 in0.0 mm 0.00 in/hr0.0 mm/hr 0.00 in0.0 mm
07:54 AM 82.2°F27.9°C 28.2°F-2.1°C 14% 4.0 mph NNW6.4 kmh NNW 11.0 mph17.7 kmh 25.19 in853.0 mb 0.00 in0.0 mm 0.00 in/hr0.0 mm/hr 0.00 in0.0 mm
07:49 AM 82.4°F28.0°C 28.4°F-2.0°C 14% 3.0 mph WNW4.8 kmh WNW 8.7 mph14.0 kmh 25.19 in853.0 mb 0.00 in0.0 mm 0.00 in/hr0.0 mm/hr 0.00 in0.0 mm
07:44 AM 82.0°F27.8°C 28.0°F-2.2°C 14% 2.0 mph W3.2 kmh W 6.9 mph11.1 kmh 25.19 in853.0 mb 0.00 in0.0 mm 0.00 in/hr0.0 mm/hr 0.00 in0.0 mm
07:39 AM 81.1°F27.3°C 27.5°F-2.5°C 14% 1.0 mph W1.6 kmh W 3.6 mph5.8 kmh 25.19 in853.0 mb 0.00 in0.0 mm 0.00 in/hr0.0 mm/hr 0.00 in0.0 mm
07:34 AM 80.2°F26.8°C -5537.2°C - 1.0 mph W1.6 kmh W 4.0 mph6.4 kmh 25.19 in853.0 mb 0.00 in0.0 mm 0.00 in/hr0.0 mm/hr 0.00 in0.0 mm
07:29 AM 79.9°F26.6°C 22.8°F-5.1°C 12% Calm Calm 4.0 mph6.4 kmh 25.19 in853.0 mb 0.00 in0.0 mm 0.00 in/hr0.0 mm/hr 0.00 in0.0 mm
07:24 AM 80.1°F26.7°C 22.8°F-5.1°C 12% Calm Calm 3.1 mph5.0 kmh 25.19 in853.0 mb 0.00 in0.0 mm 0.00 in/hr0.0 mm/hr 0.00 in0.0 mm
07:19 AM 80.1°F26.7°C 22.8°F-5.1°C 12% 1.0 mph W1.6 kmh W 3.6 mph5.8 kmh 25.19 in853.0 mb 0.00 in0.0 mm 0.00 in/hr0.0 mm/hr 0.00 in0.0 mm
07:14 AM 80.2°F26.8°C -5537.2°C - 2.0 mph W3.2 kmh W 3.6 mph5.8 kmh 25.19 in853.0 mb 0.00 in0.0 mm 0.00 in/hr0.0 mm/hr 0.00 in0.0 mm
07:09 AM 80.4°F26.9°C 23.2°F-4.9°C 12% 3.0 mph WSW4.8 kmh WSW 4.9 mph7.9 kmh 25.19 in853.0 mb 0.00 in0.0 mm 0.00 in/hr0.0 mm/hr 0.00 in0.0 mm
07:04 AM 79.9°F26.6°C 22.8°F-5.1°C 12% 2.0 mph S3.2 kmh S 4.9 mph7.9 kmh 25.19 in853.0 mb 0.00 in0.0 mm 0.00 in/hr0.0 mm/hr 0.00 in0.0 mm
06:59 AM 78.6°F25.9°C -5537.2°C - 2.0 mph S3.2 kmh S 4.0 mph6.4 kmh 25.19 in853.0 mb 0.00 in0.0 mm 0.00 in/hr0.0 mm/hr 0.00 in0.0 mm
06:54 AM 78.3°F25.7°C -5537.2°C - 2.0 mph S3.2 kmh S 6.3 mph10.1 kmh 25.19 in853.0 mb 0.00 in0.0 mm 0.00 in/hr0.0 mm/hr 0.00 in0.0 mm
06:49 AM 77.0°F25.0°C 22.5°F-5.3°C 13% 2.0 mph S3.2 kmh S 4.9 mph7.9 kmh 25.19 in853.0 mb 0.00 in0.0 mm 0.00 in/hr0.0 mm/hr 0.00 in0.0 mm
06:44 AM 76.8°F24.9°C 25.7°F-3.5°C 15% 3.0 mph SSE4.8 kmh SSE 5.4 mph8.7 kmh 25.19 in853.0 mb 0.00 in0.0 mm 0.00 in/hr0.0 mm/hr 0.00 in0.0 mm
06:39 AM 77.4°F25.2°C 26.1°F-3.3°C 15% 3.0 mph SE4.8 kmh SE 6.3 mph10.1 kmh 25.19 in853.0 mb 0.00 in0.0 mm 0.00 in/hr0.0 mm/hr 0.00 in0.0 mm
06:34 AM 77.9°F25.5°C 33.6°F0.9°C 20% 2.0 mph SE3.2 kmh SE 4.5 mph7.2 kmh 25.19 in853.0 mb 0.00 in0.0 mm 0.00 in/hr0.0 mm/hr 0.00 in0.0 mm
06:29 AM 78.1°F25.6°C 33.8°F1.0°C 20% 2.0 mph SE3.2 kmh SE 4.9 mph7.9 kmh 25.19 in853.0 mb 0.00 in0.0 mm 0.00 in/hr0.0 mm/hr 0.00 in0.0 mm
06:24 AM 78.6°F25.9°C 34.2°F1.2°C 20% 3.0 mph S4.8 kmh S 4.0 mph6.4 kmh 25.16 in852.0 mb 0.00 in0.0 mm 0.00 in/hr0.0 mm/hr 0.00 in0.0 mm
06:19 AM 79.3°F26.3°C 34.7°F1.5°C 20% 3.0 mph S4.8 kmh S 7.8 mph12.6 kmh 25.16 in852.0 mb 0.00 in0.0 mm 0.00 in/hr0.0 mm/hr 0.00 in0.0 mm
06:14 AM 78.4°F25.8°C 34.0°F1.1°C 20% 2.0 mph SSE3.2 kmh SSE 6.9 mph11.1 kmh 25.16 in852.0 mb 0.00 in0.0 mm 0.00 in/hr0.0 mm/hr 0.00 in0.0 mm
06:09 AM 78.8°F26.0°C 34.3°F1.3°C 20% 2.0 mph SE3.2 kmh SE 4.9 mph7.9 kmh 25.16 in852.0 mb 0.00 in0.0 mm 0.00 in/hr0.0 mm/hr 0.00 in0.0 mm
06:04 AM 79.2°F26.2°C 30.6°F-0.8°C 17% 1.0 mph SE1.6 kmh SE 6.7 mph10.8 kmh 25.16 in852.0 mb 0.00 in0.0 mm 0.00 in/hr0.0 mm/hr 0.00 in0.0 mm
05:59 AM 79.3°F26.3°C 27.7°F-2.4°C 15% 1.0 mph ESE1.6 kmh ESE 2.7 mph4.3 kmh 25.16 in852.0 mb 0.00 in0.0 mm 0.00 in/hr0.0 mm/hr 0.00 in0.0 mm
05:54 AM 79.7°F26.5°C 28.0°F-2.2°C 15% 2.0 mph SSE3.2 kmh SSE 6.7 mph10.8 kmh 25.16 in852.0 mb 0.00 in0.0 mm 0.00 in/hr0.0 mm/hr 0.00 in0.0 mm
05:49 AM 80.1°F26.7°C 26.6°F-3.0°C 14% 1.0 mph W1.6 kmh W 6.9 mph11.1 kmh 25.16 in852.0 mb 0.00 in0.0 mm 0.00 in/hr0.0 mm/hr 0.00 in0.0 mm
05:44 AM 80.2°F26.8°C 23.0°F-5.0°C 12% 1.0 mph W1.6 kmh W 4.5 mph7.2 kmh 25.16 in852.0 mb 0.00 in0.0 mm 0.00 in/hr0.0 mm/hr 0.00 in0.0 mm
05:39 AM 80.4°F26.9°C 23.2°F-4.9°C 12% Calm Calm 4.5 mph7.2 kmh 25.16 in852.0 mb 0.00 in0.0 mm 0.00 in/hr0.0 mm/hr 0.00 in0.0 mm
05:34 AM 81.0°F27.2°C 23.5°F-4.7°C 12% 1.0 mph W1.6 kmh W 3.6 mph5.8 kmh 25.16 in852.0 mb 0.00 in0.0 mm 0.00 in/hr0.0 mm/hr 0.00 in0.0 mm
05:29 AM 81.9°F27.7°C -5537.2°C - 3.0 mph WSW4.8 kmh WSW 4.9 mph7.9 kmh 25.16 in852.0 mb 0.00 in0.0 mm 0.00 in/hr0.0 mm/hr 0.00 in0.0 mm
05:24 AM 81.9°F27.7°C -5537.2°C - 4.0 mph SW6.4 kmh SW 6.9 mph11.1 kmh 25.16 in852.0 mb 0.00 in0.0 mm 0.00 in/hr0.0 mm/hr 0.00 in0.0 mm
05:19 AM 81.5°F27.5°C -5537.2°C - 2.0 mph E3.2 kmh E 6.9 mph11.1 kmh 25.16 in852.0 mb 0.00 in0.0 mm 0.00 in/hr0.0 mm/hr 0.00 in0.0 mm
05:14 AM 80.4°F26.9°C -5537.2°C - Calm Calm 3.6 mph5.8 kmh 25.16 in852.0 mb 0.00 in0.0 mm 0.00 in/hr0.0 mm/hr 0.00 in0.0 mm
05:09 AM 80.8°F27.1°C -5537.2°C - 1.0 mph E1.6 kmh E 4.0 mph6.4 kmh 25.16 in852.0 mb 0.00 in0.0 mm 0.00 in/hr0.0 mm/hr 0.00 in0.0 mm
05:04 AM 80.2°F26.8°C -5537.2°C - 1.0 mph SSE1.6 kmh SSE 4.9 mph7.9 kmh 25.16 in852.0 mb 0.00 in0.0 mm 0.00 in/hr0.0 mm/hr 0.00 in0.0 mm
04:59 AM 81.1°F27.3°C -5537.2°C - 2.0 mph S3.2 kmh S 3.6 mph5.8 kmh 25.16 in852.0 mb 0.00 in0.0 mm 0.00 in/hr0.0 mm/hr 0.00 in0.0 mm
04:54 AM 81.7°F27.6°C -5537.2°C - 4.0 mph SW6.4 kmh SW 6.7 mph10.8 kmh 25.13 in851.0 mb 0.00 in0.0 mm 0.00 in/hr0.0 mm/hr 0.00 in0.0 mm
04:49 AM 82.8°F28.2°C -5537.2°C - 4.0 mph WSW6.4 kmh WSW 5.8 mph9.3 kmh 25.13 in851.0 mb 0.00 in0.0 mm 0.00 in/hr0.0 mm/hr 0.00 in0.0 mm
04:44 AM 83.8°F28.8°C -5537.2°C - 6.0 mph SW9.7 kmh SW 8.7 mph14.0 kmh 25.13 in851.0 mb 0.00 in0.0 mm 0.00 in/hr0.0 mm/hr 0.00 in0.0 mm
04:39 AM 84.0°F28.9°C -5537.2°C - 6.0 mph SW9.7 kmh SW 9.6 mph15.4 kmh 25.13 in851.0 mb 0.00 in0.0 mm 0.00 in/hr0.0 mm/hr 0.00 in0.0 mm
04:34 AM 83.7°F28.7°C -5537.2°C - 5.0 mph SW8.0 kmh SW 7.4 mph11.9 kmh 25.13 in851.0 mb 0.00 in0.0 mm 0.00 in/hr0.0 mm/hr 0.00 in0.0 mm
04:29 AM 83.7°F28.7°C -5537.2°C - 5.0 mph SW8.0 kmh SW 10.1 mph16.3 kmh 25.13 in851.0 mb 0.00 in0.0 mm 0.00 in/hr0.0 mm/hr 0.00 in0.0 mm
04:24 AM 84.0°F28.9°C -5537.2°C - 5.0 mph SW8.0 kmh SW 9.6 mph15.4 kmh 25.13 in851.0 mb 0.00 in0.0 mm 0.00 in/hr0.0 mm/hr 0.00 in0.0 mm
04:19 AM 84.2°F29.0°C -5537.2°C - 5.0 mph W8.0 kmh W 9.6 mph15.4 kmh 25.13 in851.0 mb 0.00 in0.0 mm 0.00 in/hr0.0 mm/hr 0.00 in0.0 mm
04:14 AM 84.6°F29.2°C -5537.2°C - 4.0 mph WNW6.4 kmh WNW 7.4 mph11.9 kmh 25.13 in851.0 mb 0.00 in0.0 mm 0.00 in/hr0.0 mm/hr 0.00 in0.0 mm
04:09 AM 85.5°F29.7°C -5537.2°C - 3.0 mph WNW4.8 kmh WNW 6.7 mph10.8 kmh 25.13 in851.0 mb 0.00 in0.0 mm 0.00 in/hr0.0 mm/hr 0.00 in0.0 mm
04:04 AM 84.9°F29.4°C -5537.2°C - 3.0 mph NW4.8 kmh NW 5.4 mph8.7 kmh 25.13 in851.0 mb 0.00 in0.0 mm 0.00 in/hr0.0 mm/hr 0.00 in0.0 mm
03:59 AM 85.8°F29.9°C -5537.2°C - 7.0 mph NW11.3 kmh NW 11.2 mph18.0 kmh 25.13 in851.0 mb 0.00 in0.0 mm 0.00 in/hr0.0 mm/hr 0.00 in0.0 mm
03:54 AM 86.2°F30.1°C -5537.2°C - 9.0 mph N14.5 kmh N 14.8 mph23.8 kmh 25.13 in851.0 mb 0.00 in0.0 mm 0.00 in/hr0.0 mm/hr 0.00 in0.0 mm
03:49 AM 86.0°F30.0°C -5537.2°C - 8.0 mph NE12.9 kmh NE 14.8 mph23.8 kmh 25.13 in851.0 mb 0.00 in0.0 mm 0.00 in/hr0.0 mm/hr 0.00 in0.0 mm
03:44 AM 85.8°F29.9°C -5537.2°C - 8.0 mph N12.9 kmh N 15.2 mph24.5 kmh 25.13 in851.0 mb 0.00 in0.0 mm 0.00 in/hr0.0 mm/hr 0.00 in0.0 mm
03:39 AM 86.2°F30.1°C -5537.2°C - 10.0 mph WNW16.1 kmh WNW 13.4 mph21.6 kmh 25.13 in851.0 mb 0.00 in0.0 mm 0.00 in/hr0.0 mm/hr 0.00 in0.0 mm
03:34 AM 86.0°F30.0°C -5537.2°C - 8.0 mph W12.9 kmh W 17.7 mph28.5 kmh 25.13 in851.0 mb 0.00 in0.0 mm 0.00 in/hr0.0 mm/hr 0.00 in0.0 mm
03:29 AM 86.4°F30.2°C -5537.2°C - 5.0 mph W8.0 kmh W 11.2 mph18.0 kmh 25.13 in851.0 mb 0.00 in0.0 mm 0.00 in/hr0.0 mm/hr 0.00 in0.0 mm
03:24 AM 86.5°F30.3°C -5537.2°C - 5.0 mph NW8.0 kmh NW 12.1 mph19.5 kmh 25.10 in850.0 mb 0.00 in0.0 mm 0.00 in/hr0.0 mm/hr 0.00 in0.0 mm
03:19 AM 86.4°F30.2°C -5537.2°C - 6.0 mph E9.7 kmh E 10.5 mph16.9 kmh 25.10 in850.0 mb 0.00 in0.0 mm 0.00 in/hr0.0 mm/hr 0.00 in0.0 mm
03:14 AM 86.5°F30.3°C -5537.2°C - 8.0 mph E12.9 kmh E 12.1 mph19.5 kmh 25.10 in850.0 mb 0.00 in0.0 mm 0.00 in/hr0.0 mm/hr 0.00 in0.0 mm
03:09 AM 87.1°F30.6°C -5537.2°C - 10.0 mph E16.1 kmh E 16.8 mph27.0 kmh 25.10 in850.0 mb 0.00 in0.0 mm 0.00 in/hr0.0 mm/hr 0.00 in0.0 mm
03:04 AM 87.1°F30.6°C -5537.2°C - 14.0 mph ENE22.5 kmh ENE 18.1 mph29.1 kmh 25.10 in850.0 mb 0.00 in0.0 mm 0.00 in/hr0.0 mm/hr 0.00 in0.0 mm
02:59 AM 87.4°F30.8°C -5537.2°C - 14.0 mph ENE22.5 kmh ENE 24.4 mph39.3 kmh 25.10 in850.0 mb 0.00 in0.0 mm 0.00 in/hr0.0 mm/hr 0.00 in0.0 mm
02:54 AM 87.4°F30.8°C -5537.2°C - 12.0 mph ENE19.3 kmh ENE 19.0 mph30.6 kmh 25.10 in850.0 mb 0.00 in0.0 mm 0.00 in/hr0.0 mm/hr 0.00 in0.0 mm
02:49 AM 87.8°F31.0°C -5537.2°C - 10.0 mph ENE16.1 kmh ENE 20.6 mph33.2 kmh 25.10 in850.0 mb 0.00 in0.0 mm 0.00 in/hr0.0 mm/hr 0.00 in0.0 mm
02:44 AM 88.0°F31.1°C -5537.2°C - 9.0 mph E14.5 kmh E 24.2 mph38.9 kmh 25.10 in850.0 mb 0.00 in0.0 mm 0.00 in/hr0.0 mm/hr 0.00 in0.0 mm
02:39 AM 88.0°F31.1°C -5537.2°C - 8.0 mph ENE12.9 kmh ENE 12.5 mph20.1 kmh 25.10 in850.0 mb 0.00 in0.0 mm 0.00 in/hr0.0 mm/hr 0.00 in0.0 mm
02:34 AM 88.2°F31.2°C -5537.2°C - 6.0 mph ENE9.7 kmh ENE 14.8 mph23.8 kmh 25.10 in850.0 mb 0.00 in0.0 mm 0.00 in/hr0.0 mm/hr 0.00 in0.0 mm
02:29 AM 87.3°F30.7°C -5537.2°C - 4.0 mph ENE6.4 kmh ENE 8.7 mph14.0 kmh 25.10 in850.0 mb 0.00 in0.0 mm 0.00 in/hr0.0 mm/hr 0.00 in0.0 mm
02:24 AM 87.3°F30.7°C -5537.2°C - 3.0 mph NNE4.8 kmh NNE 9.2 mph14.8 kmh 25.10 in850.0 mb 0.00 in0.0 mm 0.00 in/hr0.0 mm/hr 0.00 in0.0 mm
02:19 AM 86.9°F30.5°C -5537.2°C - 3.0 mph NE4.8 kmh NE 6.9 mph11.1 kmh 25.10 in850.0 mb 0.00 in0.0 mm 0.00 in/hr0.0 mm/hr 0.00 in0.0 mm
02:14 AM 86.0°F30.0°C -5537.2°C - 3.0 mph E4.8 kmh E 9.6 mph15.4 kmh 25.10 in850.0 mb 0.00 in0.0 mm 0.00 in/hr0.0 mm/hr 0.00 in0.0 mm
02:09 AM 84.7°F29.3°C -5537.2°C - 1.0 mph E1.6 kmh E 4.5 mph7.2 kmh 25.13 in851.0 mb 0.00 in0.0 mm 0.00 in/hr0.0 mm/hr 0.00 in0.0 mm
02:04 AM 84.7°F29.3°C -5537.2°C - 1.0 mph E1.6 kmh E 4.0 mph6.4 kmh 25.13 in851.0 mb 0.00 in0.0 mm 0.00 in/hr0.0 mm/hr 0.00 in0.0 mm
01:59 AM 85.8°F29.9°C -5537.2°C - 3.0 mph NE4.8 kmh NE 8.3 mph13.4 kmh 25.13 in851.0 mb 0.00 in0.0 mm 0.00 in/hr0.0 mm/hr 0.00 in0.0 mm
01:54 AM 87.1°F30.6°C -5537.2°C - 5.0 mph WNW8.0 kmh WNW 10.1 mph16.3 kmh 25.13 in851.0 mb 0.00 in0.0 mm 0.00 in/hr0.0 mm/hr 0.00 in0.0 mm
01:49 AM 85.6°F29.8°C -5537.2°C - 6.0 mph W9.7 kmh W 8.3 mph13.4 kmh 25.13 in851.0 mb 0.00 in0.0 mm 0.00 in/hr0.0 mm/hr 0.00 in0.0 mm
01:44 AM 86.4°F30.2°C -5537.2°C - 6.0 mph WNW9.7 kmh WNW 10.1 mph16.3 kmh 25.13 in851.0 mb 0.00 in0.0 mm 0.00 in/hr0.0 mm/hr 0.00 in0.0 mm
01:39 AM 86.2°F30.1°C -5537.2°C - 6.0 mph NW9.7 kmh NW 9.2 mph14.8 kmh 25.13 in851.0 mb 0.00 in0.0 mm 0.00 in/hr0.0 mm/hr 0.00 in0.0 mm
01:34 AM 86.4°F30.2°C -5537.2°C - 7.0 mph NW11.3 kmh NW 13.9 mph22.4 kmh 25.13 in851.0 mb 0.00 in0.0 mm 0.00 in/hr0.0 mm/hr 0.00 in0.0 mm
01:29 AM 86.2°F30.1°C -5537.2°C - 7.0 mph WNW11.3 kmh WNW 11.2 mph18.0 kmh 25.13 in851.0 mb 0.00 in0.0 mm 0.00 in/hr0.0 mm/hr 0.00 in0.0 mm
01:24 AM 84.0°F28.9°C -5537.2°C - 4.0 mph W6.4 kmh W 8.3 mph13.4 kmh 25.13 in851.0 mb 0.00 in0.0 mm 0.00 in/hr0.0 mm/hr 0.00 in0.0 mm
01:19 AM 83.7°F28.7°C -5537.2°C - 3.0 mph E4.8 kmh E 5.4 mph8.7 kmh 25.13 in851.0 mb 0.00 in0.0 mm 0.00 in/hr0.0 mm/hr 0.00 in0.0 mm
01:14 AM 84.0°F28.9°C -5537.2°C - 4.0 mph SW6.4 kmh SW 6.9 mph11.1 kmh 25.13 in851.0 mb 0.00 in0.0 mm 0.00 in/hr0.0 mm/hr 0.00 in0.0 mm
01:09 AM 84.7°F29.3°C -5537.2°C - 4.0 mph SW6.4 kmh SW 8.3 mph13.4 kmh 25.13 in851.0 mb 0.00 in0.0 mm 0.00 in/hr0.0 mm/hr 0.00 in0.0 mm
01:04 AM 85.1°F29.5°C -5537.2°C - 5.0 mph WSW8.0 kmh WSW 8.3 mph13.4 kmh 25.13 in851.0 mb 0.00 in0.0 mm 0.00 in/hr0.0 mm/hr 0.00 in0.0 mm
12:59 AM 85.6°F29.8°C -5537.2°C - 6.0 mph WNW9.7 kmh WNW 8.3 mph13.4 kmh 25.13 in851.0 mb 0.00 in0.0 mm 0.00 in/hr0.0 mm/hr 0.00 in0.0 mm
12:54 AM 85.8°F29.9°C -5537.2°C - 6.0 mph NW9.7 kmh NW 8.7 mph14.0 kmh 25.13 in851.0 mb 0.00 in0.0 mm 0.00 in/hr0.0 mm/hr 0.00 in0.0 mm
12:49 AM 85.6°F29.8°C -5537.2°C - 5.0 mph N8.0 kmh N 7.4 mph11.9 kmh 25.13 in851.0 mb 0.00 in0.0 mm 0.00 in/hr0.0 mm/hr 0.00 in0.0 mm
12:44 AM 84.0°F28.9°C -5537.2°C - 5.0 mph NW8.0 kmh NW 8.3 mph13.4 kmh 25.13 in851.0 mb 0.00 in0.0 mm 0.00 in/hr0.0 mm/hr 0.00 in0.0 mm
12:39 AM 85.5°F29.7°C -5537.2°C - 7.0 mph SW11.3 kmh SW 9.6 mph15.4 kmh 25.10 in850.0 mb 0.00 in0.0 mm 0.00 in/hr0.0 mm/hr 0.00 in0.0 mm
12:34 AM 85.8°F29.9°C -5537.2°C - 9.0 mph SW14.5 kmh SW 13.4 mph21.6 kmh 25.10 in850.0 mb 0.00 in0.0 mm 0.00 in/hr0.0 mm/hr 0.00 in0.0 mm
12:29 AM 85.8°F29.9°C -5537.2°C - 8.0 mph SW12.9 kmh SW 11.6 mph18.7 kmh 25.10 in850.0 mb 0.00 in0.0 mm 0.00 in/hr0.0 mm/hr 0.00 in0.0 mm
12:24 AM 85.6°F29.8°C -5537.2°C - 8.0 mph S12.9 kmh S 13.4 mph21.6 kmh 25.10 in850.0 mb 0.00 in0.0 mm 0.00 in/hr0.0 mm/hr 0.00 in0.0 mm
12:19 AM 86.0°F30.0°C -5537.2°C - 7.0 mph ENE11.3 kmh ENE 14.8 mph23.8 kmh 25.10 in850.0 mb 0.00 in0.0 mm 0.00 in/hr0.0 mm/hr 0.00 in0.0 mm
12:14 AM 88.7°F31.5°C -5537.2°C - 5.0 mph NE8.0 kmh NE 10.1 mph16.3 kmh 25.10 in850.0 mb 0.00 in0.0 mm 0.00 in/hr0.0 mm/hr 0.00 in0.0 mm
12:09 AM 87.4°F30.8°C -5537.2°C - 4.0 mph NE6.4 kmh NE 6.9 mph11.1 kmh 25.10 in850.0 mb 0.00 in0.0 mm 0.00 in/hr0.0 mm/hr 0.00 in0.0 mm
12:04 AM 87.1°F30.6°C -5537.2°C - 6.0 mph NNE9.7 kmh NNE 6.9 mph11.1 kmh 25.10 in850.0 mb 0.00 in0.0 mm 0.00 in/hr0.0 mm/hr 0.00 in0.0 mm
WeatherForYou.com, LLC is not responsible for any damages or problems caused by this service. Current weather conditions are obtained from the closest station including government and personal stations which may have varying degrees of accuracy. Weather forecasts are derived from the NOAA NDFD and obtained through HAMweather's Aeris Weather API. Like all things, this site belongs to Jesus Christ... He just trusts me to maintain it. If you have any questions or comments email webmaster@weatherforyou.com

Copyright © 2014, WeatherForYou.com LLC. All rights reserved.